Time;durP1;ratioP1;P1;durP2;ratioP2;P2;SDS_P1;SDS_P2;PMS_P1;PMS_P2;Temp;Humidity;BMP_temperature;BMP_pressure;BME280_temperature;BME280_humidity;BME280_pressure;Samples;Min_cycle;Max_cycle;Signal;HPM_P1;HPM_P2
2024/03/17 00:00:03;;;;;;;32.30;13.00;;;;;;;3.62;73.82;101503.34;107680;1254;108289;-64
2024/03/17 00:02:32;;;;;;;25.50;13.90;;;;;;;3.58;74.55;101496.20;107599;1257;106790;-64
2024/03/17 00:05:00;;;;;;;24.60;12.20;;;;;;;3.52;74.48;101495.44;107619;1254;97710;-67
2024/03/17 00:07:28;;;;;;;31.90;14.10;;;;;;;3.49;74.68;101497.54;107649;1253;98487;-62
2024/03/17 00:09:56;;;;;;;27.30;13.00;;;;;;;3.47;74.68;101490.90;107680;1254;111066;-64
2024/03/17 00:12:24;;;;;;;34.80;14.20;;;;;;;3.46;74.85;101494.30;107599;1252;109526;-64
2024/03/17 00:14:53;;;;;;;24.50;13.60;;;;;;;3.49;75.09;101492.77;107553;1253;109796;-64
2024/03/17 00:17:21;;;;;;;29.70;14.50;;;;;;;3.51;74.92;101486.46;107577;1254;97845;-65
2024/03/17 00:19:49;;;;;;;32.20;15.00;;;;;;;3.50;74.82;101482.97;107627;1254;98382;-64
2024/03/17 00:22:17;;;;;;;40.50;19.00;;;;;;;3.50;75.13;101482.59;107643;1251;111503;-63
2024/03/17 00:24:45;;;;;;;45.70;19.00;;;;;;;3.54;75.22;101484.21;107634;1254;108570;-63
2024/03/17 00:27:14;;;;;;;44.90;17.00;;;;;;;3.54;75.16;101484.02;107664;1253;107804;-63
2024/03/17 00:29:42;;;;;;;40.30;18.20;;;;;;;3.54;75.14;101485.21;107644;1255;98185;-64
2024/03/17 00:32:11;;;;;;;37.20;18.10;;;;;;;3.56;75.28;101485.30;107476;1257;98347;-63
2024/03/17 00:34:40;;;;;;;40.50;17.00;;;;;;;3.59;75.33;101482.86;107682;1256;111953;-63
2024/03/17 00:37:08;;;;;;;51.40;23.90;;;;;;;3.61;75.39;101482.23;107674;1255;108140;-65
2024/03/17 00:39:37;;;;;;;49.80;23.40;;;;;;;3.62;75.14;101479.73;107646;1254;108092;-63
2024/03/17 00:42:06;;;;;;;46.90;21.80;;;;;;;3.62;75.23;101480.10;107561;1254;99890;-63
2024/03/17 00:44:35;;;;;;;49.60;24.20;;;;;;;3.63;75.50;101481.25;107644;1253;97721;-62
2024/03/17 00:47:04;;;;;;;52.00;26.80;;;;;;;3.64;75.62;101478.02;107603;1253;111460;-64
2024/03/17 00:49:32;;;;;;;50.30;24.40;;;;;;;3.65;75.39;101474.98;107519;1251;107166;-63
2024/03/17 00:52:01;;;;;;;58.20;26.40;;;;;;;3.66;75.49;101477.39;107462;1251;108730;-62
2024/03/17 00:54:29;;;;;;;50.80;25.30;;;;;;;3.66;75.52;101471.18;107498;1251;97838;-63
2024/03/17 00:56:57;;;;;;;47.60;21.60;;;;;;;3.65;75.24;101472.84;107480;1254;97730;-64
2024/03/17 00:59:25;;;;;;;43.60;22.10;;;;;;;3.60;75.00;101474.30;107497;1251;111845;-64
2024/03/17 01:01:54;;;;;;;40.80;22.30;;;;;;;3.55;75.04;101469.40;107535;1251;108826;-64
2024/03/17 01:04:22;;;;;;;39.60;19.70;;;;;;;3.52;75.25;101470.60;107497;1251;107597;-64
2024/03/17 01:06:50;;;;;;;32.00;18.90;;;;;;;3.48;75.21;101466.55;107453;1251;97809;-63
2024/03/17 01:09:18;;;;;;;35.10;17.80;;;;;;;3.45;75.17;101465.64;107496;1251;97703;-64
2024/03/17 01:11:46;;;;;;;32.00;17.30;;;;;;;3.44;75.34;101465.33;107550;1254;111008;-64
2024/03/17 01:14:15;;;;;;;32.80;18.60;;;;;;;3.42;75.15;101466.10;107549;1250;107248;-67
2024/03/17 01:16:44;;;;;;;32.70;17.80;;;;;;;3.38;75.10;101464.87;107531;1254;108085;-64
2024/03/17 01:19:12;;;;;;;45.60;19.10;;;;;;;3.36;75.07;101463.02;107503;1254;97933;-64
2024/03/17 01:21:40;;;;;;;35.70;19.50;;;;;;;3.35;75.46;101461.30;107650;1251;97712;-64
2024/03/17 01:24:08;;;;;;;29.70;18.60;;;;;;;3.33;75.11;101462.85;107527;1251;110803;-64
2024/03/17 01:26:36;;;;;;;74.80;20.90;;;;;;;3.33;75.26;101467.27;107555;1254;107544;-63
2024/03/17 01:29:05;;;;;;;43.50;19.20;;;;;;;3.31;75.25;101467.36;107553;1251;108076;-64
2024/03/17 01:31:33;;;;;;;35.80;18.10;;;;;;;3.31;75.36;101470.89;107577;1251;97842;-62
2024/03/17 01:34:01;;;;;;;34.20;17.20;;;;;;;3.32;75.31;101469.23;107730;1256;97892;-62
2024/03/17 01:36:29;;;;;;;43.80;18.10;;;;;;;3.35;75.53;101469.65;107494;1251;111697;-64
2024/03/17 01:38:57;;;;;;;28.40;17.20;;;;;;;3.38;75.51;101463.44;107500;1251;108234;-62
2024/03/17 01:41:25;;;;;;;31.10;16.70;;;;;;;3.42;75.37;101455.98;107582;1251;108276;-62
2024/03/17 01:43:53;;;;;;;28.10;16.50;;;;;;;3.44;75.56;101456.26;107536;1251;97724;-62
2024/03/17 01:46:22;;;;;;;29.80;15.80;;;;;;;3.50;75.78;101461.14;107538;1251;97746;-64
2024/03/17 01:48:51;;;;;;;28.50;16.00;;;;;;;3.57;76.19;101458.48;107548;1251;111383;-63
2024/03/17 01:51:19;;;;;;;28.00;15.90;;;;;;;3.60;76.50;101457.61;107513;1251;108565;-61
2024/03/17 01:53:48;;;;;;;25.60;15.00;;;;;;;3.66;76.73;101454.52;107563;1251;108221;-64
2024/03/17 01:56:17;;;;;;;34.30;15.40;;;;;;;3.70;77.13;101455.55;107546;1251;97864;-62
2024/03/17 01:58:45;;;;;;;22.00;14.40;;;;;;;3.73;77.14;101452.75;107557;1251;97940;-63
2024/03/17 02:01:16;;;;;;;23.80;15.10;;;;;;;3.78;77.37;101451.44;107521;1251;111149;-63
2024/03/17 02:03:44;;;;;;;26.30;15.80;;;;;;;3.84;77.54;101454.91;107509;1251;107749;-64
2024/03/17 02:06:12;;;;;;;25.20;16.00;;;;;;;3.91;78.08;101448.87;107519;1254;108068;-62
2024/03/17 02:08:50;;;;;;;26.30;14.90;;;;;;;3.94;78.17;101444.79;107495;1251;97844;-64
2024/03/17 02:11:25;;;;;;;25.30;15.90;;;;;;;3.96;78.42;101445.42;107560;1251;97812;-66
2024/03/17 02:13:55;;;;;;;29.60;15.20;;;;;;;3.96;78.64;101444.70;107545;1251;111260;-65
2024/03/17 02:16:24;;;;;;;30.70;16.00;;;;;;;3.98;79.12;101442.67;107491;1251;107515;-64
2024/03/17 02:18:56;;;;;;;28.90;15.50;;;;;;;4.01;78.89;101441.61;107546;1251;108747;-63
2024/03/17 02:21:27;;;;;;;30.30;17.10;;;;;;;4.02;79.08;101437.64;107510;1251;97880;-63
2024/03/17 02:23:56;;;;;;;26.30;14.60;;;;;;;4.06;79.36;101439.60;107530;1250;97838;-62
2024/03/17 02:26:26;;;;;;;25.20;15.90;;;;;;;4.10;79.71;101436.90;107496;1251;111549;-63
2024/03/17 02:28:54;;;;;;;27.80;16.90;;;;;;;4.15;79.76;101436.45;107545;1251;108784;-63
2024/03/17 02:31:23;;;;;;;28.40;17.40;;;;;;;4.22;80.12;101431.15;107496;1251;108441;-63
2024/03/17 02:33:51;;;;;;;29.50;17.30;;;;;;;4.26;79.97;101432.18;107545;1250;97820;-63
2024/03/17 02:36:19;;;;;;;34.40;17.10;;;;;;;4.31;80.28;101430.71;107493;1251;97872;-63
2024/03/17 02:41:34;;;;;;;32.50;18.00;;;;;;;4.35;80.16;101425.52;107497;1251;107858;-63
2024/03/17 02:44:02;;;;;;;29.20;17.40;;;;;;;4.40;80.33;101429.18;107539;1251;108528;-63
2024/03/17 02:46:30;;;;;;;32.80;17.10;;;;;;;4.43;80.33;101423.55;107533;1251;97931;-62
2024/03/17 02:48:59;;;;;;;29.00;17.80;;;;;;;4.46;80.48;101422.27;107551;1251;98666;-63
2024/03/17 02:51:27;;;;;;;28.00;16.70;;;;;;;4.46;80.31;101422.66;107563;1251;111237;-66
2024/03/17 02:53:55;;;;;;;27.90;18.40;;;;;;;4.47;80.60;101422.61;107556;1251;108354;-63
2024/03/17 02:56:24;;;;;;;30.80;16.80;;;;;;;4.50;80.68;101418.54;107612;1251;106591;-63
2024/03/17 02:58:52;;;;;;;31.90;17.30;;;;;;;4.54;81.13;101414.91;107560;1251;97953;-62
2024/03/17 03:01:20;;;;;;;27.90;17.00;;;;;;;4.58;80.87;101413.47;107616;1251;98460;-64
2024/03/17 03:03:48;;;;;;;27.30;17.10;;;;;;;4.60;80.92;101412.13;107628;1251;112206;-65
2024/03/17 03:06:19;;;;;;;26.50;16.40;;;;;;;4.63;81.29;101407.34;107584;1251;107998;-64
2024/03/17 03:08:50;;;;;;;26.80;16.10;;;;;;;4.63;81.23;101404.66;107620;1251;107842;-65
2024/03/17 03:11:18;;;;;;;24.70;16.00;;;;;;;4.60;80.93;101405.59;107565;1251;97730;-62
2024/03/17 03:13:46;;;;;;;26.40;16.00;;;;;;;4.55;81.05;101402.11;107611;1251;99628;-63
2024/03/17 03:16:14;;;;;;;26.20;15.30;;;;;;;4.50;80.82;101406.45;107591;1250;112407;-61
2024/03/17 03:18:44;;;;;;;30.40;16.90;;;;;;;4.47;80.80;101405.39;107674;1251;107869;-64
2024/03/17 03:21:12;;;;;;;29.50;15.90;;;;;;;4.43;80.85;101409.87;107577;1251;108209;-63
2024/03/17 03:23:41;;;;;;;28.10;16.50;;;;;;;4.42;81.26;101410.45;107605;1251;97842;-63
2024/03/17 03:26:09;;;;;;;29.40;16.50;;;;;;;4.43;81.33;101414.28;107631;1251;98363;-63
2024/03/17 03:28:38;;;;;;;26.50;16.10;;;;;;;4.42;81.28;101413.42;107696;1251;112078;-66
2024/03/17 03:31:10;;;;;;;25.00;15.30;;;;;;;4.43;81.41;101417.45;107623;1251;108055;-63
2024/03/17 03:33:38;;;;;;;25.50;15.60;;;;;;;4.43;81.26;101414.64;107622;1251;108717;-63
2024/03/17 03:36:09;;;;;;;27.10;15.80;;;;;;;4.44;81.28;101411.06;107606;1251;97793;-63
2024/03/17 03:38:37;;;;;;;25.80;16.20;;;;;;;4.42;81.37;101415.95;107668;1250;97906;-62
2024/03/17 03:41:10;;;;;;;25.30;14.90;;;;;;;4.37;81.18;101413.48;107615;1250;111433;-63
2024/03/17 03:43:38;;;;;;;31.30;15.60;;;;;;;4.33;80.94;101415.14;107574;1254;108041;-63
2024/03/17 03:46:07;;;;;;;28.30;16.40;;;;;;;4.27;80.93;101415.80;107605;1251;107423;-64
2024/03/17 03:48:35;;;;;;;26.10;15.60;;;;;;;4.21;80.93;101413.98;107589;1251;97711;-63
2024/03/17 03:51:09;;;;;;;25.50;15.70;;;;;;;4.17;81.07;101417.05;107637;1251;97819;-62
2024/03/17 03:53:38;;;;;;;41.30;17.20;;;;;;;4.14;81.15;101416.48;107619;1251;111296;-64
2024/03/17 03:56:06;;;;;;;27.50;16.40;;;;;;;4.12;81.07;101411.08;107643;1251;107251;-64
2024/03/17 03:58:35;;;;;;;27.20;15.40;;;;;;;4.10;80.97;101414.75;107666;1251;107216;-64
2024/03/17 04:01:08;;;;;;;30.40;15.40;;;;;;;4.04;81.09;101408.98;107604;1254;97947;-64
2024/03/17 04:03:36;;;;;;;27.20;16.00;;;;;;;4.00;80.90;101411.83;107608;1251;97831;-62
2024/03/17 04:06:10;;;;;;;27.10;16.10;;;;;;;3.96;80.87;101414.36;107594;1251;111531;-63
2024/03/17 04:08:42;;;;;;;24.60;15.00;;;;;;;3.92;81.03;101417.95;107613;1251;108250;-63
2024/03/17 04:11:11;;;;;;;28.70;15.70;;;;;;;3.88;80.86;101414.22;107623;1251;106678;-63
2024/03/17 04:13:39;;;;;;;26.60;15.90;;;;;;;3.85;80.80;101416.30;107634;1251;97832;-62
2024/03/17 04:16:08;;;;;;;27.50;15.60;;;;;;;3.82;80.58;101413.64;107605;1250;98027;-62
2024/03/17 04:18:37;;;;;;;26.70;14.90;;;;;;;3.78;80.49;101417.20;107592;1251;112584;-63
2024/03/17 04:21:07;;;;;;;25.00;15.90;;;;;;;3.73;80.35;101412.11;107632;1250;107082;-63
2024/03/17 04:23:35;;;;;;;26.50;15.40;;;;;;;3.67;80.31;101416.15;107597;1251;107666;-64
2024/03/17 04:26:04;;;;;;;23.40;15.20;;;;;;;3.63;80.32;101420.95;107595;1254;97909;-63
2024/03/17 04:28:32;;;;;;;24.70;14.20;;;;;;;3.59;80.23;101418.98;107659;1251;97842;-64
2024/03/17 04:31:05;;;;;;;28.30;15.90;;;;;;;3.57;79.93;101421.05;107616;1251;111238;-64
2024/03/17 04:33:34;;;;;;;27.00;15.50;;;;;;;3.55;79.90;101419.77;107607;1250;108738;-63
2024/03/17 04:36:03;;;;;;;26.50;14.40;;;;;;;3.50;79.88;101417.70;107587;1251;107009;-62
2024/03/17 04:38:31;;;;;;;23.30;14.20;;;;;;;3.49;79.81;101422.00;107634;1251;97819;-64
2024/03/17 04:41:08;;;;;;;24.90;14.00;;;;;;;3.46;79.71;101422.83;107675;1251;98376;-61
2024/03/17 04:43:36;;;;;;;24.60;14.60;;;;;;;3.44;79.90;101425.40;107621;1251;111475;-62
2024/03/17 04:46:06;;;;;;;33.80;13.70;;;;;;;3.44;79.86;101421.52;107615;1251;107781;-63
2024/03/17 04:48:34;;;;;;;25.50;14.50;;;;;;;3.43;79.65;101422.46;107628;1251;107921;-62
2024/03/17 04:51:03;;;;;;;21.70;13.80;;;;;;;3.39;79.72;101421.23;107593;1251;97860;-63
2024/03/17 04:53:32;;;;;;;27.70;14.00;;;;;;;3.38;79.53;101423.94;107691;1251;97837;-65
2024/03/17 04:56:05;;;;;;;26.80;15.70;;;;;;;3.38;79.78;101425.14;107635;1251;110692;-64
2024/03/17 04:58:34;;;;;;;33.90;17.20;;;;;;;3.39;79.90;101423.18;107611;1251;107795;-64
2024/03/17 05:01:09;;;;;;;27.60;17.00;;;;;;;3.40;80.02;101423.98;107674;1251;106252;-64
2024/03/17 05:03:37;;;;;;;26.60;15.60;;;;;;;3.44;79.96;101426.80;107576;1251;97835;-63
2024/03/17 05:06:06;;;;;;;24.00;14.10;;;;;;;3.47;79.75;101424.22;107559;1251;97824;-63
2024/03/17 05:08:34;;;;;;;26.40;14.50;;;;;;;3.46;79.78;101426.90;107607;1251;112317;-64
2024/03/17 05:11:05;;;;;;;26.20;15.60;;;;;;;3.47;79.69;101425.11;107582;1254;108306;-63
2024/03/17 05:13:35;;;;;;;27.60;15.80;;;;;;;3.48;79.77;101421.86;107553;1251;107764;-64
2024/03/17 05:16:04;;;;;;;38.80;17.10;;;;;;;3.52;80.09;101424.52;107596;1251;97852;-63
2024/03/17 05:18:35;;;;;;;36.40;17.00;;;;;;;3.57;80.06;101420.90;107565;1250;97991;-64
2024/03/17 05:21:05;;;;;;;34.40;18.50;;;;;;;3.62;80.00;101417.11;107586;1251;112075;-63
2024/03/17 05:23:35;;;;;;;35.00;17.50;;;;;;;3.64;79.87;101421.43;107586;1251;109219;-61
2024/03/17 05:26:06;;;;;;;28.90;18.20;;;;;;;3.65;79.88;101416.06;107565;1254;107819;-65
2024/03/17 05:28:35;;;;;;;33.00;19.20;;;;;;;3.67;79.95;101415.05;107539;1251;97854;-63
2024/03/17 05:31:04;;;;;;;36.70;18.50;;;;;;;3.72;80.13;101411.45;107544;1254;97742;-64
2024/03/17 05:33:32;;;;;;;38.90;18.60;;;;;;;3.78;80.24;101407.08;107552;1251;111562;-63
2024/03/17 05:36:02;;;;;;;34.50;20.00;;;;;;;3.84;80.43;101404.64;107569;1251;106522;-65
2024/03/17 05:38:31;;;;;;;37.30;19.30;;;;;;;3.94;80.78;101403.63;107579;1251;108875;-65
2024/03/17 05:41:01;;;;;;;37.30;21.60;;;;;;;4.04;81.04;101404.73;107565;1251;97842;-64
2024/03/17 05:43:38;;;;;;;39.20;18.70;;;;;;;4.11;81.16;101406.86;107674;1251;98396;-63
2024/03/17 05:46:12;;;;;;;37.50;21.80;;;;;;;4.18;81.10;101406.84;107594;1251;111439;-63
2024/03/17 05:48:41;;;;;;;41.20;22.90;;;;;;;4.26;81.65;101412.14;107566;1251;106836;-62
2024/03/17 05:51:11;;;;;;;37.20;22.80;;;;;;;4.33;81.52;101410.70;107656;1251;107674;-63
2024/03/17 05:53:46;;;;;;;42.20;22.90;;;;;;;4.38;81.69;101412.39;107639;1251;97861;-63
2024/03/17 05:56:15;;;;;;;38.20;21.50;;;;;;;4.45;81.89;101416.50;107551;1250;97743;-62
2024/03/17 05:58:44;;;;;;;41.60;22.00;;;;;;;4.51;81.90;101413.32;107633;1251;111748;-63
2024/03/17 06:01:12;;;;;;;40.10;21.50;;;;;;;4.60;82.06;101411.10;107601;1250;109193;-64
2024/03/17 06:03:41;;;;;;;38.70;21.40;;;;;;;4.69;82.32;101413.10;107570;1251;107293;-64
2024/03/17 06:06:10;;;;;;;38.90;21.90;;;;;;;4.78;82.43;101418.81;107596;1251;97906;-63
2024/03/17 06:08:38;;;;;;;41.00;21.50;;;;;;;4.88;82.68;101421.16;107588;1251;98424;-68
2024/03/17 06:11:08;;;;;;;40.10;22.00;;;;;;;4.94;82.74;101424.90;107605;1250;111470;-64
2024/03/17 06:13:36;;;;;;;37.70;22.20;;;;;;;5.02;82.68;101425.86;107663;1251;107255;-62
2024/03/17 06:16:05;;;;;;;40.20;21.10;;;;;;;5.12;82.69;101424.65;107577;1251;108255;-64
2024/03/17 06:18:33;;;;;;;38.70;21.40;;;;;;;5.20;82.97;101425.81;107588;1251;97827;-62
2024/03/17 06:21:05;;;;;;;37.80;20.70;;;;;;;5.25;82.69;101426.95;107554;1251;97716;-62
2024/03/17 06:23:33;;;;;;;37.40;21.40;;;;;;;5.33;82.90;101422.75;107647;1251;111259;-63
2024/03/17 06:26:05;;;;;;;43.90;23.50;;;;;;;5.43;82.97;101425.76;107574;1250;108772;-63
2024/03/17 06:28:33;;;;;;;41.10;21.60;;;;;;;5.53;83.02;101426.24;107602;1251;108324;-62
2024/03/17 06:31:06;;;;;;;39.70;22.00;;;;;;;5.63;82.95;101423.58;107582;1250;97909;-62
2024/03/17 06:33:35;;;;;;;34.00;19.80;;;;;;;5.72;83.21;101428.92;107671;1251;97836;-63
2024/03/17 06:36:04;;;;;;;35.80;19.10;;;;;;;5.82;83.00;101433.14;107584;1254;110999;-63
2024/03/17 06:38:33;;;;;;;36.90;20.50;;;;;;;5.90;82.96;101435.89;107625;1251;107092;-63
2024/03/17 06:41:01;;;;;;;41.20;20.50;;;;;;;5.96;82.83;101427.56;107632;1251;108568;-62
2024/03/17 06:43:30;;;;;;;37.20;20.80;;;;;;;6.05;83.35;101427.95;107541;1251;99713;-61
2024/03/17 06:45:59;;;;;;;34.80;20.30;;;;;;;6.13;83.30;101432.30;107578;1251;99720;-62
2024/03/17 06:48:29;;;;;;;36.60;21.30;;;;;;;6.18;83.04;101430.36;107720;1251;112732;-64
2024/03/17 06:50:57;;;;;;;36.20;20.90;;;;;;;6.23;82.97;101427.42;107569;1251;108322;-65
2024/03/17 06:53:26;;;;;;;38.60;21.50;;;;;;;6.31;83.23;101424.63;107533;1254;107784;-62
2024/03/17 06:55:58;;;;;;;36.60;20.60;;;;;;;6.39;83.10;101425.38;107580;1251;99188;-62
2024/03/17 06:58:29;;;;;;;38.10;20.50;;;;;;;6.49;83.07;101426.03;107658;1251;99175;-63
2024/03/17 07:01:02;;;;;;;41.20;21.20;;;;;;;6.58;82.81;101424.23;107572;1251;113693;-64
2024/03/17 07:03:31;;;;;;;38.20;22.30;;;;;;;6.67;82.77;101423.86;107580;1250;108356;-64
2024/03/17 07:06:03;;;;;;;39.90;21.10;;;;;;;6.75;82.62;101421.92;107605;1251;107638;-63
2024/03/17 07:08:32;;;;;;;42.20;20.20;;;;;;;6.85;82.48;101418.52;107634;1251;99208;-63
2024/03/17 07:11:05;;;;;;;38.10;21.90;;;;;;;6.93;82.46;101417.28;107623;1250;99162;-63
2024/03/17 07:13:38;;;;;;;41.60;21.80;;;;;;;7.01;82.43;101420.35;107576;1251;113085;-64
2024/03/17 07:16:06;;;;;;;54.50;22.60;;;;;;;7.09;82.00;101417.16;107574;1253;107231;-63
2024/03/17 07:18:35;;;;;;;38.70;19.40;;;;;;;7.17;81.87;101415.55;107626;1251;108707;-64
2024/03/17 07:21:04;;;;;;;39.10;21.10;;;;;;;7.26;81.73;101415.77;107646;1256;99183;-63
2024/03/17 07:23:32;;;;;;;40.90;21.60;;;;;;;7.32;81.44;101414.61;107600;1251;99150;-63
2024/03/17 07:26:04;;;;;;;47.20;21.60;;;;;;;7.40;81.32;101413.57;107623;1251;113480;-63
2024/03/17 07:28:32;;;;;;;40.50;20.50;;;;;;;7.47;81.08;101411.67;107585;1251;107362;-65
2024/03/17 07:31:01;;;;;;;38.60;20.10;;;;;;;7.57;81.09;101411.39;107618;1251;107908;-64
2024/03/17 07:33:29;;;;;;;36.40;20.60;;;;;;;7.67;80.97;101411.80;107650;1251;99629;-65
2024/03/17 07:36:00;;;;;;;38.50;19.90;;;;;;;7.77;80.73;101411.19;107608;1250;99588;-64
2024/03/17 07:38:30;;;;;;;38.30;22.40;;;;;;;7.87;80.84;101403.71;107624;1251;112460;-63
2024/03/17 07:41:03;;;;;;;38.70;21.80;;;;;;;8.01;80.82;101404.03;107637;1250;108833;-63
2024/03/17 07:43:34;;;;;;;36.30;21.50;;;;;;;8.16;80.73;101400.35;107571;1251;108147;-63
2024/03/17 07:46:12;;;;;;;36.30;20.20;;;;;;;8.29;80.45;101398.42;107624;1250;99181;-63
2024/03/17 07:48:42;;;;;;;40.20;19.90;;;;;;;8.45;80.21;101398.36;107669;1254;99772;-62
2024/03/17 07:51:13;;;;;;;33.70;19.70;;;;;;;8.57;79.99;101392.73;107613;1250;112417;-64
2024/03/17 07:53:44;;;;;;;37.30;20.00;;;;;;;8.69;79.76;101388.52;107611;1251;107890;-66
2024/03/17 07:56:14;;;;;;;33.30;19.30;;;;;;;8.79;79.48;101386.40;107544;1251;108397;-64
2024/03/17 07:58:44;;;;;;;31.30;20.00;;;;;;;8.89;79.20;101379.91;106892;1251;877917;-64
2024/03/17 08:01:14;;;;;;;35.30;19.80;;;;;;;9.01;79.13;101378.57;107645;1253;99717;-64
2024/03/17 08:03:45;;;;;;;53.30;20.60;;;;;;;9.16;79.20;101375.17;107605;1253;113429;-62
2024/03/17 08:06:13;;;;;;;38.20;20.30;;;;;;;9.31;79.06;101376.37;107671;1251;108808;-66
2024/03/17 08:08:42;;;;;;;39.50;19.50;;;;;;;9.45;78.34;101368.95;107613;1251;107528;-66
2024/03/17 08:11:10;;;;;;;37.80;20.60;;;;;;;9.58;77.75;101367.42;107626;1251;99204;-63
2024/03/17 08:13:39;;;;;;;42.40;20.50;;;;;;;9.68;77.22;101361.11;107634;1250;99182;-65
2024/03/17 08:16:10;;;;;;;36.80;20.80;;;;;;;9.81;76.94;101364.23;107630;1251;111798;-64
2024/03/17 08:18:38;;;;;;;39.70;19.30;;;;;;;9.97;77.24;101368.20;107651;1250;107943;-63
2024/03/17 08:21:07;;;;;;;33.20;19.80;;;;;;;10.15;76.53;101365.61;107585;1254;107321;-64
2024/03/17 08:23:41;;;;;;;36.60;19.90;;;;;;;10.30;75.55;101365.01;107635;1251;99194;-63
2024/03/17 08:26:09;;;;;;;33.10;20.90;;;;;;;10.42;75.07;101356.60;107630;1251;100944;-63
2024/03/17 08:28:37;;;;;;;35.80;20.10;;;;;;;10.56;74.91;101354.38;107595;1250;112711;-64
2024/03/17 08:31:05;;;;;;;31.40;19.90;;;;;;;10.71;73.95;101350.17;107628;1251;107664;-64
2024/03/17 08:33:34;;;;;;;34.10;21.20;;;;;;;10.81;73.63;101343.63;107609;1251;107770;-65
2024/03/17 08:36:04;;;;;;;32.30;20.20;;;;;;;10.96;73.54;101339.37;107598;1251;99250;-63
2024/03/17 08:38:34;;;;;;;46.40;20.60;;;;;;;11.13;73.45;101338.52;107626;1251;99143;-63
2024/03/17 08:41:06;;;;;;;29.40;19.10;;;;;;;11.33;72.99;101340.13;107600;1251;113389;-61
2024/03/17 08:43:36;;;;;;;34.30;21.00;;;;;;;11.53;71.91;101333.46;107643;1251;107511;-64
2024/03/17 08:46:06;;;;;;;31.90;20.90;;;;;;;11.69;71.71;101328.34;107623;1251;107110;-63
2024/03/17 08:48:39;;;;;;;40.50;20.60;;;;;;;11.90;71.13;101324.98;107613;1251;99176;-66
2024/03/17 08:51:10;;;;;;;33.20;19.60;;;;;;;12.09;70.58;101326.59;107648;1250;99172;-65
2024/03/17 08:53:39;;;;;;;32.70;21.60;;;;;;;12.34;70.11;101318.34;107642;1251;113714;-65
2024/03/17 08:56:07;;;;;;;31.90;20.70;;;;;;;12.56;68.68;101318.16;107597;1251;108289;-65
2024/03/17 08:58:36;;;;;;;38.50;20.60;;;;;;;12.77;68.37;101313.84;107629;1251;107781;-64
2024/03/17 09:01:08;;;;;;;43.00;22.90;;;;;;;12.97;67.41;101310.08;107625;1250;99186;-65
2024/03/17 09:03:36;;;;;;;30.00;18.60;;;;;;;13.18;67.00;101303.86;107668;1251;99058;-65
2024/03/17 09:06:15;;;;;;;31.60;18.60;;;;;;;13.41;65.54;101301.63;107663;1251;112939;-66
2024/03/17 09:08:43;;;;;;;29.40;18.90;;;;;;;13.70;64.83;101300.57;107671;1254;107312;-66
2024/03/17 09:11:14;;;;;;;38.50;18.50;;;;;;;13.98;65.07;101299.41;107567;1254;107537;-67
2024/03/17 09:13:42;;;;;;;32.60;18.70;;;;;;;14.27;62.83;101297.54;107567;1254;99230;-66
2024/03/17 09:16:11;;;;;;;42.50;19.50;;;;;;;14.54;62.49;101295.73;107603;1254;99233;-67
2024/03/17 09:18:39;;;;;;;38.10;18.10;;;;;;;14.82;61.41;101291.74;107611;1254;111744;-69
2024/03/17 09:21:13;;;;;;;30.60;18.60;;;;;;;15.13;61.45;101290.71;107631;1254;107786;-67
2024/03/17 09:23:42;;;;;;;28.20;19.20;;;;;;;15.41;58.42;101281.40;107614;1251;108042;-67
2024/03/17 09:26:17;;;;;;;40.60;18.90;;;;;;;15.68;57.98;101282.40;107576;1251;99296;-66
2024/03/17 09:28:46;;;;;;;32.10;18.50;;;;;;;16.04;57.52;101280.80;107630;1251;99073;-65
2024/03/17 09:31:14;;;;;;;26.70;17.70;;;;;;;16.47;55.24;101276.30;107612;1251;112570;-67
2024/03/17 09:33:43;;;;;;;28.10;18.10;;;;;;;17.06;54.81;101271.52;107566;1251;107746;-66
2024/03/17 09:36:12;;;;;;;29.80;17.40;;;;;;;17.77;54.97;101266.45;107614;1251;108079;-66
2024/03/17 09:38:41;;;;;;;33.60;18.00;;;;;;;18.54;53.20;101266.58;107581;1251;99206;-66
2024/03/17 09:41:25;;;;;;;24.40;16.60;;;;;;;19.22;52.50;101261.48;107638;1251;99287;-66
2024/03/17 09:43:54;;;;;;;30.90;16.60;;;;;;;19.99;51.43;101254.56;107626;1251;113345;-67
2024/03/17 09:46:24;;;;;;;34.90;17.50;;;;;;;20.56;47.57;101251.55;107637;1253;107730;-66
2024/03/17 09:48:53;;;;;;;30.40;16.50;;;;;;;21.03;47.76;101249.80;107552;1251;108340;-66
2024/03/17 09:51:25;;;;;;;42.10;18.20;;;;;;;21.54;45.45;101240.94;107617;1251;99183;-67
2024/03/17 09:53:54;;;;;;;31.20;16.80;;;;;;;22.11;45.45;101240.98;107621;1250;99929;-65
2024/03/17 09:56:22;;;;;;;29.30;15.50;;;;;;;22.53;41.10;101233.69;107668;1251;113063;-65
2024/03/17 09:58:52;;;;;;;20.50;14.50;;;;;;;22.79;41.79;101236.64;107592;1254;108320;-66
2024/03/17 10:01:20;;;;;;;21.30;13.70;;;;;;;23.21;39.51;101233.27;107594;1254;108321;-66
2024/03/17 10:03:51;;;;;;;22.70;12.40;;;;;;;23.44;39.57;101234.80;107625;1254;99215;-66
2024/03/17 10:06:20;;;;;;;15.90;11.10;;;;;;;23.85;36.13;101226.77;107676;1251;99819;-67
2024/03/17 10:08:51;;;;;;;17.50;12.30;;;;;;;24.13;34.98;101232.90;107644;1251;113655;-65
2024/03/17 10:11:24;;;;;;;16.10;11.40;;;;;;;24.30;34.54;101230.70;107586;1251;108795;-67
2024/03/17 10:14:00;;;;;;;;;;;;;;;24.60;35.95;101226.06;107581;1254;107767;-67
2024/03/17 10:16:29;;;;;;;18.50;10.20;;;;;;;25.02;34.57;101218.73;107569;1254;99188;-67
2024/03/17 10:19:23;;;;;;;19.50;12.70;;;;;;;25.40;34.54;101213.55;107636;1254;99065;-67
2024/03/17 10:22:01;;;;;;;15.00;10.50;;;;;;;25.98;33.15;101213.45;107584;1254;111811;-66
2024/03/17 10:24:29;;;;;;;12.90;9.80;;;;;;;26.32;31.61;101214.03;107609;1253;108396;-67
2024/03/17 10:27:02;;;;;;;15.30;9.00;;;;;;;26.45;32.47;101207.75;107596;1252;107628;-66
2024/03/17 10:29:35;;;;;;;12.90;8.60;;;;;;;26.72;31.87;101208.27;107647;1252;99188;-66
2024/03/17 10:32:16;;;;;;;17.70;9.30;;;;;;;27.00;30.99;101209.11;107637;1254;99154;-66
2024/03/17 10:34:45;;;;;;;19.10;10.00;;;;;;;27.22;30.61;101202.30;107637;1254;112318;-66
2024/03/17 10:37:27;;;;;;;8.50;7.10;;;;;;;27.36;29.80;101200.71;107607;1251;107984;-66
2024/03/17 10:39:55;;;;;;;7.50;5.50;;;;;;;27.56;28.58;101196.02;107513;1254;107465;-66
2024/03/17 10:42:28;;;;;;;8.90;5.50;;;;;;;27.28;27.15;101190.26;107583;1251;99066;-66
2024/03/17 10:44:58;;;;;;;17.80;5.80;;;;;;;26.94;27.22;101195.30;107643;1250;99076;-67
2024/03/17 10:47:28;;;;;;;5.50;4.60;;;;;;;26.70;24.97;101191.51;107656;1251;114043;-66
2024/03/17 10:49:56;;;;;;;13.60;5.10;;;;;;;26.49;26.00;101186.73;107563;1253;107845;-66
2024/03/17 10:52:28;;;;;;;6.30;5.20;;;;;;;26.62;25.17;101184.43;107553;1254;108597;-66
2024/03/17 10:55:22;;;;;;;10.50;4.90;;;;;;;26.47;24.36;101178.31;107571;1254;99084;-67
2024/03/17 10:57:53;;;;;;;8.50;4.40;;;;;;;26.25;23.83;101176.34;107641;1254;99710;-65
2024/03/17 11:00:22;;;;;;;7.00;4.40;;;;;;;26.17;23.54;101174.88;107602;1254;112786;-66
2024/03/17 11:02:55;;;;;;;7.30;4.50;;;;;;;25.84;23.52;101174.08;107617;1254;107839;-66
2024/03/17 11:05:33;;;;;;;;;;;;;;;25.86;23.64;101169.13;107588;1252;107842;-66
2024/03/17 11:08:02;;;;;;;9.00;4.90;;;;;;;25.66;23.23;101169.47;107598;1254;99237;-65
2024/03/17 11:10:34;;;;;;;10.40;5.30;;;;;;;25.87;24.23;101166.29;107629;1252;99172;-66
2024/03/17 11:13:03;;;;;;;10.60;6.00;;;;;;;26.43;24.19;101161.78;107565;1254;111878;-66
2024/03/17 11:15:33;;;;;;;6.60;4.80;;;;;;;26.57;24.33;101162.27;107630;1254;108239;-65
2024/03/17 11:18:11;;;;;;;5.60;4.80;;;;;;;27.16;24.64;101160.12;107629;1254;108798;-66